Time,TemperatureF,DewpointF,PressureIn,WindDirection,WindDirectionDegrees,WindSpeedMPH,WindSpeedGustMPH,Humidity,HourlyPrecipIn,Conditions,Clouds,dailyrainin,SoftwareType,DateUTC
2013-03-20 00:02:00,31.0,-2.0,-100.00,SSW,202,11.0,16.0,24,0.00,,,-99.99,,2013-03-20 06:02:00,
2013-03-20 00:11:00,32.0,-4.0,-100.00,SW,215,11.0,19.0,21,0.00,,,-99.99,,2013-03-20 06:11:00,
2013-03-20 00:21:00,32.0,-3.0,-100.00,SSW,202,4.0,7.0,22,0.00,,,-99.99,,2013-03-20 06:21:00,
2013-03-20 00:42:00,33.0,-4.0,-100.00,SSE,165,1.0,1.0,20,0.00,,,-99.99,,2013-03-20 06:42:00,
2013-03-20 00:51:00,29.0,3.0,-100.00,SSW,213,1.0,3.0,32,0.00,,,-99.99,,2013-03-20 06:51:00,
2013-03-20 01:02:00,28.0,2.0,-100.00,SW,219,2.0,4.0,32,0.00,,,-99.99,,2013-03-20 07:02:00,
2013-03-20 01:11:00,28.0,2.0,-100.00,SSW,202,4.0,5.0,32,0.00,,,-99.99,,2013-03-20 07:11:00,
2013-03-20 01:21:00,28.0,3.0,-100.00,South,179,4.0,6.0,34,0.00,,,-99.99,,2013-03-20 07:21:00,
2013-03-20 01:31:00,28.0,2.0,-100.00,NNE,25,1.0,1.0,32,0.00,,,-99.99,,2013-03-20 07:31:00,
2013-03-20 01:41:00,28.0,2.0,-100.00,SW,217,1.0,1.0,32,0.00,,,-99.99,,2013-03-20 07:41:00,
2013-03-20 01:52:00,27.0,4.0,-100.00,SSW,205,1.0,2.0,36,0.00,,,-99.99,,2013-03-20 07:52:00,
2013-03-20 02:02:00,27.0,4.0,-100.00,WSW,244,1.0,2.0,37,0.00,,,-99.99,,2013-03-20 08:02:00,
2013-03-20 02:11:00,26.0,4.0,-100.00,SSW,213,2.0,4.0,38,0.00,,,-99.99,,2013-03-20 08:11:00,
2013-03-20 02:21:00,25.0,4.0,-100.00,East,89,2.0,4.0,41,0.00,,,-99.99,,2013-03-20 08:21:00,
2013-03-20 02:32:00,25.0,5.0,-100.00,East,85,1.0,3.0,41,0.00,,,-99.99,,2013-03-20 08:32:00,
2013-03-20 02:41:00,27.0,2.0,-100.00,South,188,1.0,2.0,34,0.00,,,-99.99,,2013-03-20 08:41:00,
2013-03-20 02:51:00,27.0,4.0,-100.00,SW,222,2.0,3.0,37,0.00,,,-99.99,,2013-03-20 08:51:00,
2013-03-20 03:02:00,27.0,4.0,-100.00,ESE,104,4.0,4.0,36,0.00,,,-99.99,,2013-03-20 09:02:00,
2013-03-20 03:11:00,27.0,4.0,-100.00,SSE,150,4.0,7.0,36,0.00,,,-99.99,,2013-03-20 09:11:00,
2013-03-20 03:21:00,27.0,6.0,-100.00,SSW,202,4.0,6.0,40,0.00,,,-99.99,,2013-03-20 09:21:00,
2013-03-20 03:32:00,27.0,5.0,-100.00,South,186,4.0,5.0,39,0.00,,,-99.99,,2013-03-20 09:32:00,
2013-03-20 03:42:00,30.0,0.0,-100.00,SW,226,7.0,11.0,28,0.00,,,-99.99,,2013-03-20 09:42:00,
2013-03-20 03:52:00,29.0,1.0,-100.00,SW,234,6.0,9.0,29,0.00,,,-99.99,,2013-03-20 09:52:00,
2013-03-20 04:02:00,29.0,-1.0,-100.00,WSW,244,6.0,10.0,28,0.00,,,-99.99,,2013-03-20 10:02:00,
2013-03-20 04:12:00,30.0,-3.0,-100.00,WSW,237,11.0,15.0,24,0.00,,,-99.99,,2013-03-20 10:12:00,
2013-03-20 04:22:00,29.0,1.0,-100.00,West,261,6.0,11.0,29,0.00,,,-99.99,,2013-03-20 10:22:00,
2013-03-20 04:32:00,26.0,5.0,-100.00,West,267,4.0,8.0,40,0.00,,,-99.99,,2013-03-20 10:32:00,
2013-03-20 04:42:00,25.0,4.0,-100.00,WNW,285,4.0,7.0,41,0.00,,,-99.99,,2013-03-20 10:42:00,
2013-03-20 04:52:00,25.0,5.0,-100.00,WSW,241,2.0,5.0,42,0.00,,,-99.99,,2013-03-20 10:52:00,
2013-03-20 05:02:00,33.0,-7.0,-100.00,SW,216,19.0,21.0,18,0.00,,,-99.99,,2013-03-20 11:02:00,
2013-03-20 05:11:00,33.0,-7.0,-100.00,SW,216,19.0,22.0,17,0.00,,,-99.99,,2013-03-20 11:11:00,
2013-03-20 05:21:00,34.0,-6.0,-100.00,SW,224,9.0,14.0,18,0.00,,,-99.99,,2013-03-20 11:21:00,
2013-03-20 05:32:00,33.0,-6.0,-100.00,SSW,213,14.0,19.0,18,0.00,,,-99.99,,2013-03-20 11:32:00,
2013-03-20 05:42:00,34.0,-7.0,-100.00,SW,220,19.0,24.0,17,0.00,,,-99.99,,2013-03-20 11:42:00,
2013-03-20 05:51:00,34.0,-7.0,-100.00,SW,230,17.0,26.0,16,0.00,,,-99.99,,2013-03-20 11:51:00,
2013-03-20 06:02:00,36.0,-10.0,-100.00,SSW,199,14.0,19.0,13,0.00,,,-99.99,,2013-03-20 12:02:00,
2013-03-20 06:11:00,36.0,-9.0,-100.00,SW,224,13.0,17.0,14,0.00,,,-99.99,,2013-03-20 12:11:00,
2013-03-20 06:21:00,36.0,-9.0,-100.00,NW,309,3.0,8.0,14,0.00,,,-99.99,,2013-03-20 12:21:00,
2013-03-20 06:32:00,35.0,-8.0,-100.00,SSW,195,8.0,12.0,15,0.00,,,-99.99,,2013-03-20 12:32:00,
2013-03-20 06:42:00,34.0,-9.0,-100.00,SSW,196,7.0,10.0,15,0.00,,,-99.99,,2013-03-20 12:42:00,
2013-03-20 06:51:00,34.0,-8.0,-100.00,South,185,17.0,21.0,16,0.00,,,-99.99,,2013-03-20 12:51:00,
2013-03-20 07:02:00,33.0,-7.0,-100.00,SSW,203,27.0,30.0,17,0.00,,,-99.99,,2013-03-20 13:02:00,
2013-03-20 07:11:00,34.0,-9.0,-100.00,SSW,203,29.0,32.0,15,0.00,,,-99.99,,2013-03-20 13:11:00,
2013-03-20 07:21:00,34.0,-9.0,-100.00,SSW,196,22.0,26.0,16,0.00,,,-99.99,,2013-03-20 13:21:00,
2013-03-20 07:32:00,33.0,-8.0,-100.00,South,191,20.0,21.0,16,0.00,,,-99.99,,2013-03-20 13:32:00,
2013-03-20 07:52:00,33.0,-7.0,-100.00,South,172,19.0,21.0,18,0.00,,,-99.99,,2013-03-20 13:52:00,
2013-03-20 08:02:00,31.0,-5.0,-100.00,SSE,164,21.0,23.0,20,0.00,,,-99.99,,2013-03-20 14:02:00,
2013-03-20 08:11:00,31.0,-5.0,-100.00,SSE,164,21.0,23.0,20,0.00,,,-99.99,,2013-03-20 14:11:00,
2013-03-20 08:21:00,31.0,-5.0,-100.00,SSE,155,21.0,22.0,21,0.00,,,-99.99,,2013-03-20 14:21:00,
2013-03-20 08:32:00,31.0,-3.0,-100.00,SSE,157,19.0,21.0,23,0.00,,,-99.99,,2013-03-20 14:32:00,
2013-03-20 08:41:00,31.0,-2.0,-100.00,SSE,158,19.0,21.0,24,0.00,,,-99.99,,2013-03-20 14:41:00,
2013-03-20 08:51:00,32.0,-5.0,-100.00,SSE,167,22.0,25.0,19,0.00,,,-99.99,,2013-03-20 14:51:00,
2013-03-20 09:02:00,31.0,-1.0,-100.00,SSE,160,19.0,22.0,24,0.00,,,-99.99,,2013-03-20 15:02:00,
2013-03-20 09:12:00,31.0,-1.0,-100.00,SSE,151,22.0,25.0,25,0.00,,,-99.99,,2013-03-20 15:12:00,
2013-03-20 09:21:00,32.0,0.0,-100.00,SSE,155,22.0,27.0,24,0.00,,,-99.99,,2013-03-20 15:21:00,
2013-03-20 09:33:00,32.0,-2.0,-100.00,SSE,164,24.0,27.0,23,0.00,,,-99.99,,2013-03-20 15:33:00,
2013-03-20 09:42:00,32.0,0.0,-100.00,South,169,27.0,30.0,25,0.00,,,-99.99,,2013-03-20 15:42:00,
2013-03-20 09:52:00,33.0,3.0,-100.00,SSE,168,24.0,29.0,27,0.00,,,-99.99,,2013-03-20 15:52:00,
2013-03-20 10:02:00,35.0,14.0,-100.00,South,176,24.0,30.0,42,0.00,,,-99.99,,2013-03-20 16:02:00,
2013-03-20 10:12:00,35.0,10.0,-100.00,SSE,168,21.0,24.0,35,0.00,,,-99.99,,2013-03-20 16:12:00,
2013-03-20 10:22:00,35.0,14.0,-100.00,SSE,165,22.0,27.0,41,0.00,,,-99.99,,2013-03-20 16:22:00,
2013-03-20 10:32:00,38.0,13.0,-100.00,South,189,20.0,24.0,35,0.00,,,-99.99,,2013-03-20 16:32:00,
2013-03-20 10:42:00,34.0,13.0,-100.00,SSW,208,11.0,16.0,42,0.00,,,-99.99,,2013-03-20 16:42:00,
2013-03-20 10:52:00,30.0,15.0,-100.00,SSE,151,6.0,9.0,52,0.00,,,-99.99,,2013-03-20 16:52:00,
2013-03-20 11:02:00,32.0,14.0,-100.00,SSW,202,6.0,10.0,47,0.00,,,-99.99,,2013-03-20 17:02:00,
2013-03-20 11:11:00,32.0,14.0,-100.00,SW,220,3.0,5.0,47,0.00,,,-99.99,,2013-03-20 17:11:00,
2013-03-20 11:21:00,32.0,13.0,-100.00,SW,229,7.0,8.0,44,0.00,,,-99.99,,2013-03-20 17:21:00,
2013-03-20 11:32:00,36.0,16.0,-100.00,South,186,4.0,7.0,43,0.00,,,-99.99,,2013-03-20 17:32:00,
2013-03-20 11:42:00,39.0,21.0,-100.00,South,186,7.0,10.0,49,0.00,,,-99.99,,2013-03-20 17:42:00,
2013-03-20 11:52:00,40.0,15.0,-100.00,WSW,244,7.0,11.0,36,0.00,,,-99.99,,2013-03-20 17:52:00,
2013-03-20 12:02:00,39.0,18.0,-100.00,SW,232,9.0,12.0,43,0.00,,,-99.99,,2013-03-20 18:02:00,
2013-03-20 12:11:00,38.0,18.0,-100.00,West,277,7.0,14.0,44,0.00,,,-99.99,,2013-03-20 18:11:00,
2013-03-20 12:21:00,43.0,27.0,-100.00,SW,234,26.0,37.0,52,0.00,,,-99.99,,2013-03-20 18:21:00,
2013-03-20 12:32:00,42.0,28.0,-100.00,SW,230,24.0,30.0,56,0.00,,,-99.99,,2013-03-20 18:32:00,
2013-03-20 12:42:00,41.0,29.0,-100.00,SW,223,27.0,32.0,62,0.00,,,-99.99,,2013-03-20 18:42:00,
2013-03-20 12:52:00,41.0,29.0,-100.00,SW,227,23.0,30.0,63,0.00,,,-99.99,,2013-03-20 18:52:00,
2013-03-20 13:01:00,40.0,29.0,-100.00,SW,220,24.0,27.0,65,0.00,,,-99.99,,2013-03-20 19:01:00,
2013-03-20 13:21:00,40.0,30.0,-100.00,SW,219,23.0,27.0,67,0.00,,,-99.99,,2013-03-20 19:21:00,
2013-03-20 13:32:00,40.0,30.0,-100.00,SW,224,20.0,26.0,67,0.00,,,-99.99,,2013-03-20 19:32:00,
2013-03-20 13:41:00,41.0,31.0,-100.00,SW,230,12.0,19.0,67,0.00,,,-99.99,,2013-03-20 19:41:00,
2013-03-20 13:52:00,40.0,29.0,-100.00,SSW,205,22.0,27.0,65,0.00,,,-99.99,,2013-03-20 19:52:00,
2013-03-20 14:01:00,40.0,28.0,-100.00,SSW,203,24.0,31.0,62,0.00,,,-99.99,,2013-03-20 20:01:00,
2013-03-20 14:11:00,40.0,28.0,-100.00,SSW,200,21.0,26.0,61,0.00,,,-99.99,,2013-03-20 20:11:00,
2013-03-20 14:21:00,43.0,27.0,-100.00,WSW,241,16.0,24.0,54,0.00,,,-99.99,,2013-03-20 20:21:00,
2013-03-20 14:32:00,44.0,26.0,-100.00,WSW,258,21.0,24.0,50,0.00,,,-99.99,,2013-03-20 20:32:00,
2013-03-20 14:41:00,44.0,26.0,-100.00,WSW,256,19.0,22.0,50,0.00,,,-99.99,,2013-03-20 20:41:00,
2013-03-20 14:52:00,45.0,25.0,-100.00,WSW,253,27.0,41.0,44,0.00,,,-99.99,,2013-03-20 20:52:00,
2013-03-20 15:01:00,46.0,24.0,-100.00,WSW,254,21.0,37.0,42,0.00,,,-99.99,,2013-03-20 21:01:00,
2013-03-20 15:11:00,46.0,25.0,-100.00,WSW,251,24.0,34.0,43,0.00,,,-99.99,,2013-03-20 21:11:00,
2013-03-20 15:21:00,48.0,26.0,-100.00,WSW,243,15.0,24.0,42,0.00,,,-99.99,,2013-03-20 21:21:00,
2013-03-20 15:33:00,49.0,24.0,-100.00,WSW,237,26.0,32.0,37,0.00,,,-99.99,,2013-03-20 21:33:00,
2013-03-20 15:41:00,48.0,24.0,-100.00,WSW,253,16.0,20.0,38,0.00,,,-99.99,,2013-03-20 21:41:00,
2013-03-20 15:52:00,47.0,23.0,-100.00,WSW,253,22.0,32.0,39,0.00,,,-99.99,,2013-03-20 21:52:00,
2013-03-20 16:02:00,49.0,24.0,-100.00,WSW,256,19.0,29.0,37,0.00,,,-99.99,,2013-03-20 22:02:00,
2013-03-20 16:12:00,48.0,24.0,-100.00,WSW,239,18.0,28.0,38,0.00,,,-99.99,,2013-03-20 22:12:00,
2013-03-20 16:22:00,47.0,24.0,-100.00,WSW,246,16.0,20.0,40,0.00,,,-99.99,,2013-03-20 22:22:00,
2013-03-20 16:32:00,49.0,24.0,-100.00,WSW,243,17.0,21.0,38,0.00,,,-99.99,,2013-03-20 22:32:00,
2013-03-20 16:42:00,49.0,24.0,-100.00,WSW,239,21.0,26.0,38,0.00,,,-99.99,,2013-03-20 22:42:00,
2013-03-20 16:52:00,49.0,23.0,-100.00,WSW,243,16.0,24.0,35,0.00,,,-99.99,,2013-03-20 22:52:00,
2013-03-20 17:02:00,50.0,23.0,-100.00,WSW,257,21.0,24.0,35,0.00,,,-99.99,,2013-03-20 23:02:00,
2013-03-20 17:11:00,50.0,22.0,-100.00,West,260,19.0,24.0,33,0.00,,,-99.99,,2013-03-20 23:11:00,
2013-03-20 17:22:00,51.0,22.0,-100.00,West,274,22.0,26.0,31,0.00,,,-99.99,,2013-03-20 23:22:00,
2013-03-20 17:31:00,52.0,22.0,-100.00,West,260,21.0,26.0,31,0.00,,,-99.99,,2013-03-20 23:31:00,
2013-03-20 17:42:00,51.0,22.0,-100.00,WSW,258,24.0,30.0,33,0.00,,,-99.99,,2013-03-20 23:42:00,
2013-03-20 17:52:00,50.0,22.0,-100.00,WSW,250,14.0,19.0,33,0.00,,,-99.99,,2013-03-20 23:52:00,
2013-03-20 18:02:00,50.0,23.0,-100.00,WSW,254,12.0,16.0,35,0.00,,,-99.99,,2013-03-21 00:02:00,
2013-03-20 18:11:00,50.0,23.0,-100.00,WSW,247,10.0,14.0,34,0.00,,,-99.99,,2013-03-21 00:11:00,
2013-03-20 18:32:00,49.0,22.0,-100.00,West,263,11.0,14.0,34,0.00,,,-99.99,,2013-03-21 00:32:00,
2013-03-20 18:41:00,49.0,22.0,-100.00,West,268,17.0,21.0,34,0.00,,,-99.99,,2013-03-21 00:41:00,
2013-03-20 18:52:00,48.0,23.0,-100.00,WSW,243,14.0,19.0,37,0.00,,,-99.99,,2013-03-21 00:52:00,
2013-03-20 19:02:00,47.0,23.0,-100.00,WSW,256,9.0,12.0,38,0.00,,,-99.99,,2013-03-21 01:02:00,
2013-03-20 19:11:00,46.0,25.0,-100.00,SSW,210,19.0,22.0,44,0.00,,,-99.99,,2013-03-21 01:11:00,
2013-03-20 19:21:00,43.0,24.0,-100.00,SSW,206,19.0,24.0,46,0.00,,,-99.99,,2013-03-21 01:21:00,
2013-03-20 19:32:00,43.0,24.0,-100.00,SW,215,7.0,11.0,46,0.00,,,-99.99,,2013-03-21 01:32:00,
2013-03-20 19:41:00,43.0,23.0,-100.00,South,181,2.0,4.0,45,0.00,,,-99.99,,2013-03-21 01:41:00,
2013-03-20 19:52:00,43.0,23.0,-100.00,WSW,254,3.0,6.0,45,0.00,,,-99.99,,2013-03-21 01:52:00,
2013-03-20 20:01:00,43.0,22.0,-100.00,WSW,257,9.0,11.0,43,0.00,,,-99.99,,2013-03-21 02:01:00,
2013-03-20 20:11:00,43.0,22.0,-100.00,West,263,5.0,7.0,44,0.00,,,-99.99,,2013-03-21 02:11:00,
2013-03-20 20:22:00,42.0,23.0,-100.00,North,0,3.0,4.0,46,0.00,,,-99.99,,2013-03-21 02:22:00,
2013-03-20 20:32:00,42.0,22.0,-100.00,WSW,241,2.0,4.0,44,0.00,,,-99.99,,2013-03-21 02:32:00,
2013-03-20 20:41:00,42.0,22.0,-100.00,WSW,241,2.0,4.0,44,0.00,,,-99.99,,2013-03-21 02:41:00,
2013-03-20 20:51:00,42.0,22.0,-100.00,WSW,241,2.0,4.0,44,0.00,,,-99.99,,2013-03-21 02:51:00,
2013-03-20 21:02:00,42.0,24.0,-100.00,West,281,9.0,11.0,48,0.00,,,-99.99,,2013-03-21 03:02:00,
2013-03-20 21:11:00,41.0,24.0,-100.00,WSW,257,9.0,14.0,49,0.00,,,-99.99,,2013-03-21 03:11:00,
2013-03-20 21:21:00,40.0,26.0,-100.00,WSW,250,15.0,22.0,57,0.00,,,-99.99,,2013-03-21 03:21:00,
2013-03-20 21:32:00,39.0,27.0,-100.00,WSW,239,25.0,29.0,62,0.00,,,-99.99,,2013-03-21 03:32:00,
2013-03-20 21:42:00,38.0,27.0,-100.00,WSW,253,18.0,30.0,64,0.00,,,-99.99,,2013-03-21 03:42:00,
2013-03-20 21:52:00,38.0,27.0,-100.00,SW,224,27.0,35.0,64,0.00,,,-99.99,,2013-03-21 03:52:00,
2013-03-20 22:02:00,38.0,27.0,-100.00,SW,222,28.0,32.0,65,0.00,,,-99.99,,2013-03-21 04:02:00,
2013-03-20 22:12:00,38.0,28.0,-100.00,SSW,203,27.0,30.0,65,0.00,,,-99.99,,2013-03-21 04:12:00,
2013-03-20 22:22:00,38.0,28.0,-100.00,South,184,23.0,26.0,66,0.00,,,-99.99,,2013-03-21 04:22:00,
2013-03-20 22:32:00,38.0,29.0,-100.00,South,179,21.0,23.0,71,0.00,,,-99.99,,2013-03-21 04:32:00,
2013-03-20 22:42:00,38.0,29.0,-100.00,South,178,24.0,27.0,72,0.00,,,-99.99,,2013-03-21 04:42:00,
2013-03-20 22:52:00,38.0,29.0,-100.00,South,189,25.0,29.0,72,0.00,,,-99.99,,2013-03-21 04:52:00,
2013-03-20 23:02:00,37.0,29.0,-100.00,South,176,27.0,33.0,74,0.00,,,-99.99,,2013-03-21 05:02:00,
2013-03-20 23:12:00,36.0,29.0,-100.00,South,182,29.0,32.0,76,0.00,,,-99.99,,2013-03-21 05:12:00,
2013-03-20 23:21:00,36.0,30.0,-100.00,South,175,29.0,32.0,79,0.00,,,-99.99,,2013-03-21 05:21:00,
2013-03-20 23:32:00,36.0,30.0,-100.00,South,176,28.0,32.0,80,0.00,,,-99.99,,2013-03-21 05:32:00,
2013-03-20 23:42:00,36.0,31.0,-100.00,South,178,28.0,32.0,81,0.00,,,-99.99,,2013-03-21 05:42:00,
2013-03-20 23:51:00,36.0,30.0,-100.00,South,176,32.0,35.0,79,0.00,,,-99.99,,2013-03-21 05:51:00,